sensor_id;sensor_type;location;lat;lon;timestamp;P1;durP1;ratioP1;P2;durP2;ratioP2
78887;SDS011;68276;49.326;8.690;2023-07-02T00:00:22;7.10;;;1.87;;
78887;SDS011;68276;49.326;8.690;2023-07-02T00:02:48;6.10;;;1.80;;
78887;SDS011;68276;49.326;8.690;2023-07-02T00:05:13;6.93;;;1.90;;
78887;SDS011;68276;49.326;8.690;2023-07-02T00:07:38;5.87;;;1.80;;
78887;SDS011;68276;49.326;8.690;2023-07-02T00:10:04;5.50;;;1.90;;
78887;SDS011;68276;49.326;8.690;2023-07-02T00:14:55;6.37;;;2.10;;
78887;SDS011;68276;49.326;8.690;2023-07-02T00:17:21;6.85;;;1.75;;
78887;SDS011;68276;49.326;8.690;2023-07-02T00:19:46;5.15;;;1.85;;
78887;SDS011;68276;49.326;8.690;2023-07-02T00:22:12;5.70;;;1.70;;
78887;SDS011;68276;49.326;8.690;2023-07-02T00:24:37;4.23;;;1.60;;
78887;SDS011;68276;49.326;8.690;2023-07-02T00:27:03;5.13;;;1.67;;
78887;SDS011;68276;49.326;8.690;2023-07-02T00:29:29;5.72;;;1.80;;
78887;SDS011;68276;49.326;8.690;2023-07-02T00:31:54;7.30;;;2.55;;
78887;SDS011;68276;49.326;8.690;2023-07-02T00:34:19;4.27;;;1.40;;
78887;SDS011;68276;49.326;8.690;2023-07-02T00:36:45;4.78;;;1.70;;
78887;SDS011;68276;49.326;8.690;2023-07-02T00:39:11;5.72;;;1.95;;
78887;SDS011;68276;49.326;8.690;2023-07-02T00:41:41;8.68;;;2.65;;
78887;SDS011;68276;49.326;8.690;2023-07-02T00:44:07;7.78;;;2.10;;
78887;SDS011;68276;49.326;8.690;2023-07-02T00:46:35;7.68;;;2.20;;
78887;SDS011;68276;49.326;8.690;2023-07-02T00:49:00;5.78;;;2.15;;
78887;SDS011;68276;49.326;8.690;2023-07-02T00:51:29;6.10;;;1.83;;
78887;SDS011;68276;49.326;8.690;2023-07-02T00:53:55;5.87;;;2.00;;
78887;SDS011;68276;49.326;8.690;2023-07-02T00:56:22;5.70;;;1.80;;
78887;SDS011;68276;49.326;8.690;2023-07-02T00:58:48;5.93;;;1.80;;
78887;SDS011;68276;49.326;8.690;2023-07-02T01:01:18;7.65;;;2.10;;
78887;SDS011;68276;49.326;8.690;2023-07-02T01:03:58;5.43;;;1.90;;
78887;SDS011;68276;49.326;8.690;2023-07-02T01:06:26;5.95;;;2.00;;
78887;SDS011;68276;49.326;8.690;2023-07-02T01:08:54;5.50;;;1.80;;
78887;SDS011;68276;49.326;8.690;2023-07-02T01:11:21;6.20;;;1.50;;
78887;SDS011;68276;49.326;8.690;2023-07-02T01:13:50;5.25;;;1.73;;
78887;SDS011;68276;49.326;8.690;2023-07-02T01:16:19;7.22;;;1.65;;
78887;SDS011;68276;49.326;8.690;2023-07-02T01:18:46;5.50;;;1.73;;
78887;SDS011;68276;49.326;8.690;2023-07-02T01:21:13;5.63;;;1.80;;
78887;SDS011;68276;49.326;8.690;2023-07-02T01:23:38;5.82;;;1.70;;
78887;SDS011;68276;49.326;8.690;2023-07-02T01:26:03;4.73;;;1.73;;
78887;SDS011;68276;49.326;8.690;2023-07-02T01:28:34;3.92;;;1.40;;
78887;SDS011;68276;49.326;8.690;2023-07-02T01:31:02;6.75;;;1.92;;
78887;SDS011;68276;49.326;8.690;2023-07-02T01:33:28;4.93;;;1.50;;
78887;SDS011;68276;49.326;8.690;2023-07-02T01:35:54;5.43;;;1.50;;
78887;SDS011;68276;49.326;8.690;2023-07-02T01:38:19;4.47;;;1.50;;
78887;SDS011;68276;49.326;8.690;2023-07-02T01:40:44;5.43;;;1.60;;
78887;SDS011;68276;49.326;8.690;2023-07-02T01:43:10;5.17;;;1.43;;
78887;SDS011;68276;49.326;8.690;2023-07-02T01:45:36;6.03;;;1.70;;
78887;SDS011;68276;49.326;8.690;2023-07-02T01:48:03;6.68;;;1.88;;
78887;SDS011;68276;49.326;8.690;2023-07-02T01:50:28;5.60;;;1.90;;
78887;SDS011;68276;49.326;8.690;2023-07-02T01:52:53;7.67;;;1.70;;
78887;SDS011;68276;49.326;8.690;2023-07-02T01:55:19;4.87;;;1.60;;
78887;SDS011;68276;49.326;8.690;2023-07-02T01:57:44;8.37;;;1.93;;
78887;SDS011;68276;49.326;8.690;2023-07-02T02:00:10;5.83;;;1.80;;
78887;SDS011;68276;49.326;8.690;2023-07-02T02:02:36;6.10;;;1.73;;
78887;SDS011;68276;49.326;8.690;2023-07-02T02:05:01;6.30;;;1.90;;
78887;SDS011;68276;49.326;8.690;2023-07-02T02:07:27;5.53;;;1.85;;
78887;SDS011;68276;49.326;8.690;2023-07-02T02:09:52;5.23;;;2.10;;
78887;SDS011;68276;49.326;8.690;2023-07-02T02:12:17;7.05;;;2.00;;
78887;SDS011;68276;49.326;8.690;2023-07-02T02:14:43;8.30;;;1.95;;
78887;SDS011;68276;49.326;8.690;2023-07-02T02:17:08;7.20;;;1.83;;
78887;SDS011;68276;49.326;8.690;2023-07-02T02:19:34;6.40;;;1.80;;
78887;SDS011;68276;49.326;8.690;2023-07-02T02:21:59;5.90;;;1.90;;
78887;SDS011;68276;49.326;8.690;2023-07-02T02:24:24;6.30;;;1.77;;
78887;SDS011;68276;49.326;8.690;2023-07-02T02:26:50;6.67;;;1.63;;
78887;SDS011;68276;49.326;8.690;2023-07-02T02:29:15;5.30;;;1.77;;
78887;SDS011;68276;49.326;8.690;2023-07-02T02:31:40;4.97;;;1.90;;
78887;SDS011;68276;49.326;8.690;2023-07-02T02:34:07;5.97;;;1.83;;
78887;SDS011;68276;49.326;8.690;2023-07-02T02:36:32;6.00;;;2.10;;
78887;SDS011;68276;49.326;8.690;2023-07-02T02:38:58;11.67;;;2.33;;
78887;SDS011;68276;49.326;8.690;2023-07-02T02:41:23;7.30;;;2.30;;
78887;SDS011;68276;49.326;8.690;2023-07-02T02:43:48;6.90;;;2.27;;
78887;SDS011;68276;49.326;8.690;2023-07-02T02:46:19;9.93;;;2.60;;
78887;SDS011;68276;49.326;8.690;2023-07-02T02:48:45;6.65;;;1.92;;
78887;SDS011;68276;49.326;8.690;2023-07-02T02:51:10;9.43;;;2.37;;
78887;SDS011;68276;49.326;8.690;2023-07-02T02:53:35;8.27;;;2.47;;
78887;SDS011;68276;49.326;8.690;2023-07-02T02:56:00;8.73;;;2.53;;
78887;SDS011;68276;49.326;8.690;2023-07-02T02:58:26;8.33;;;2.13;;
78887;SDS011;68276;49.326;8.690;2023-07-02T03:00:53;11.65;;;2.22;;
78887;SDS011;68276;49.326;8.690;2023-07-02T03:03:18;9.90;;;2.53;;
78887;SDS011;68276;49.326;8.690;2023-07-02T03:05:45;6.80;;;2.50;;
78887;SDS011;68276;49.326;8.690;2023-07-02T03:08:13;8.05;;;2.20;;
78887;SDS011;68276;49.326;8.690;2023-07-02T03:10:38;7.88;;;2.08;;
78887;SDS011;68276;49.326;8.690;2023-07-02T03:13:04;8.07;;;2.33;;
78887;SDS011;68276;49.326;8.690;2023-07-02T03:15:29;7.40;;;2.17;;
78887;SDS011;68276;49.326;8.690;2023-07-02T03:17:54;8.97;;;2.80;;
78887;SDS011;68276;49.326;8.690;2023-07-02T03:20:20;9.57;;;2.70;;
78887;SDS011;68276;49.326;8.690;2023-07-02T03:22:45;8.45;;;2.05;;
78887;SDS011;68276;49.326;8.690;2023-07-02T03:25:10;7.80;;;2.27;;
78887;SDS011;68276;49.326;8.690;2023-07-02T03:27:36;7.15;;;2.00;;
78887;SDS011;68276;49.326;8.690;2023-07-02T03:30:01;8.00;;;2.27;;
78887;SDS011;68276;49.326;8.690;2023-07-02T03:32:28;8.85;;;2.45;;
78887;SDS011;68276;49.326;8.690;2023-07-02T03:34:54;8.57;;;2.10;;
78887;SDS011;68276;49.326;8.690;2023-07-02T03:37:19;9.80;;;2.25;;
78887;SDS011;68276;49.326;8.690;2023-07-02T03:39:44;9.07;;;2.43;;
78887;SDS011;68276;49.326;8.690;2023-07-02T03:42:10;9.10;;;2.30;;
78887;SDS011;68276;49.326;8.690;2023-07-02T03:44:35;9.20;;;2.70;;
78887;SDS011;68276;49.326;8.690;2023-07-02T03:47:01;8.33;;;2.50;;
78887;SDS011;68276;49.326;8.690;2023-07-02T03:49:26;8.43;;;2.60;;
78887;SDS011;68276;49.326;8.690;2023-07-02T03:51:51;10.43;;;2.70;;
78887;SDS011;68276;49.326;8.690;2023-07-02T03:54:17;9.55;;;2.50;;
78887;SDS011;68276;49.326;8.690;2023-07-02T03:56:43;7.90;;;2.50;;
78887;SDS011;68276;49.326;8.690;2023-07-02T03:59:08;10.10;;;2.78;;
78887;SDS011;68276;49.326;8.690;2023-07-02T04:01:33;9.50;;;2.80;;
78887;SDS011;68276;49.326;8.690;2023-07-02T04:03:59;8.73;;;2.40;;
78887;SDS011;68276;49.326;8.690;2023-07-02T04:06:24;9.23;;;2.63;;
78887;SDS011;68276;49.326;8.690;2023-07-02T04:08:50;9.50;;;2.65;;
78887;SDS011;68276;49.326;8.690;2023-07-02T04:11:15;9.35;;;2.70;;
78887;SDS011;68276;49.326;8.690;2023-07-02T04:13:41;8.40;;;2.40;;
78887;SDS011;68276;49.326;8.690;2023-07-02T04:16:06;10.50;;;2.65;;
78887;SDS011;68276;49.326;8.690;2023-07-02T04:18:32;8.50;;;2.40;;
78887;SDS011;68276;49.326;8.690;2023-07-02T04:20:58;9.82;;;2.65;;
78887;SDS011;68276;49.326;8.690;2023-07-02T04:23:24;9.23;;;2.40;;
78887;SDS011;68276;49.326;8.690;2023-07-02T04:25:49;7.65;;;2.35;;
78887;SDS011;68276;49.326;8.690;2023-07-02T04:28:15;11.75;;;2.30;;
78887;SDS011;68276;49.326;8.690;2023-07-02T04:30:41;6.50;;;2.20;;
78887;SDS011;68276;49.326;8.690;2023-07-02T04:33:07;6.97;;;2.25;;
78887;SDS011;68276;49.326;8.690;2023-07-02T04:35:32;8.80;;;2.53;;
78887;SDS011;68276;49.326;8.690;2023-07-02T04:37:59;8.82;;;2.10;;
78887;SDS011;68276;49.326;8.690;2023-07-02T04:40:25;7.43;;;2.17;;
78887;SDS011;68276;49.326;8.690;2023-07-02T04:42:51;8.02;;;2.08;;
78887;SDS011;68276;49.326;8.690;2023-07-02T04:45:22;6.70;;;2.13;;
78887;SDS011;68276;49.326;8.690;2023-07-02T04:47:48;9.05;;;2.90;;
78887;SDS011;68276;49.326;8.690;2023-07-02T04:50:14;8.73;;;2.23;;
78887;SDS011;68276;49.326;8.690;2023-07-02T04:52:39;6.70;;;2.10;;
78887;SDS011;68276;49.326;8.690;2023-07-02T04:55:05;6.65;;;2.55;;
78887;SDS011;68276;49.326;8.690;2023-07-02T04:59:56;7.40;;;2.00;;
78887;SDS011;68276;49.326;8.690;2023-07-02T05:02:22;10.93;;;2.88;;
78887;SDS011;68276;49.326;8.690;2023-07-02T05:04:47;9.50;;;2.47;;
78887;SDS011;68276;49.326;8.690;2023-07-02T05:07:13;11.20;;;2.95;;
78887;SDS011;68276;49.326;8.690;2023-07-02T05:09:38;10.00;;;2.50;;
78887;SDS011;68276;49.326;8.690;2023-07-02T05:12:04;9.60;;;2.60;;
78887;SDS011;68276;49.326;8.690;2023-07-02T05:14:29;8.43;;;2.47;;
78887;SDS011;68276;49.326;8.690;2023-07-02T05:16:54;9.77;;;2.73;;
78887;SDS011;68276;49.326;8.690;2023-07-02T05:19:20;8.97;;;2.53;;
78887;SDS011;68276;49.326;8.690;2023-07-02T05:21:45;7.37;;;2.27;;
78887;SDS011;68276;49.326;8.690;2023-07-02T05:24:11;8.17;;;2.30;;
78887;SDS011;68276;49.326;8.690;2023-07-02T05:26:36;8.23;;;2.70;;
78887;SDS011;68276;49.326;8.690;2023-07-02T05:29:01;8.10;;;2.40;;
78887;SDS011;68276;49.326;8.690;2023-07-02T05:31:27;8.90;;;2.58;;
78887;SDS011;68276;49.326;8.690;2023-07-02T05:33:53;10.50;;;2.67;;
78887;SDS011;68276;49.326;8.690;2023-07-02T05:36:19;9.48;;;2.90;;
78887;SDS011;68276;49.326;8.690;2023-07-02T05:38:44;9.10;;;3.40;;
78887;SDS011;68276;49.326;8.690;2023-07-02T05:41:10;8.30;;;2.58;;
78887;SDS011;68276;49.326;8.690;2023-07-02T05:43:35;7.80;;;2.30;;
78887;SDS011;68276;49.326;8.690;2023-07-02T05:46:00;8.27;;;3.10;;
78887;SDS011;68276;49.326;8.690;2023-07-02T05:48:26;10.10;;;2.72;;
78887;SDS011;68276;49.326;8.690;2023-07-02T05:50:52;13.68;;;3.88;;
78887;SDS011;68276;49.326;8.690;2023-07-02T05:53:18;10.02;;;2.75;;
78887;SDS011;68276;49.326;8.690;2023-07-02T05:55:43;10.67;;;2.97;;
78887;SDS011;68276;49.326;8.690;2023-07-02T05:58:09;13.63;;;2.97;;
78887;SDS011;68276;49.326;8.690;2023-07-02T06:00:34;8.70;;;2.88;;
78887;SDS011;68276;49.326;8.690;2023-07-02T06:03:00;10.90;;;3.38;;
78887;SDS011;68276;49.326;8.690;2023-07-02T06:05:25;9.77;;;3.95;;
78887;SDS011;68276;49.326;8.690;2023-07-02T06:07:51;10.17;;;3.17;;
78887;SDS011;68276;49.326;8.690;2023-07-02T06:10:19;11.70;;;3.38;;
78887;SDS011;68276;49.326;8.690;2023-07-02T06:12:44;16.45;;;3.85;;
78887;SDS011;68276;49.326;8.690;2023-07-02T06:15:10;10.77;;;3.80;;
78887;SDS011;68276;49.326;8.690;2023-07-02T06:17:35;15.55;;;4.32;;
78887;SDS011;68276;49.326;8.690;2023-07-02T06:20:04;14.03;;;4.17;;
78887;SDS011;68276;49.326;8.690;2023-07-02T06:22:30;10.10;;;3.65;;
78887;SDS011;68276;49.326;8.690;2023-07-02T06:24:56;12.00;;;3.50;;
78887;SDS011;68276;49.326;8.690;2023-07-02T06:27:21;9.45;;;3.30;;
78887;SDS011;68276;49.326;8.690;2023-07-02T06:29:47;12.48;;;4.80;;
78887;SDS011;68276;49.326;8.690;2023-07-02T06:32:12;13.38;;;4.50;;
78887;SDS011;68276;49.326;8.690;2023-07-02T06:34:38;11.77;;;4.10;;
78887;SDS011;68276;49.326;8.690;2023-07-02T06:37:04;11.83;;;3.93;;
78887;SDS011;68276;49.326;8.690;2023-07-02T06:39:30;12.57;;;4.75;;
78887;SDS011;68276;49.326;8.690;2023-07-02T06:41:55;13.10;;;4.28;;
78887;SDS011;68276;49.326;8.690;2023-07-02T06:44:20;12.53;;;4.37;;
78887;SDS011;68276;49.326;8.690;2023-07-02T06:46:46;14.17;;;4.47;;
78887;SDS011;68276;49.326;8.690;2023-07-02T06:49:11;11.52;;;3.85;;
78887;SDS011;68276;49.326;8.690;2023-07-02T06:51:36;13.17;;;3.63;;
78887;SDS011;68276;49.326;8.690;2023-07-02T06:54:02;13.43;;;4.63;;
78887;SDS011;68276;49.326;8.690;2023-07-02T06:56:27;12.95;;;4.28;;
78887;SDS011;68276;49.326;8.690;2023-07-02T06:58:53;11.57;;;3.88;;
78887;SDS011;68276;49.326;8.690;2023-07-02T07:01:18;10.23;;;4.43;;
78887;SDS011;68276;49.326;8.690;2023-07-02T07:03:44;15.63;;;4.50;;
78887;SDS011;68276;49.326;8.690;2023-07-02T07:06:09;13.70;;;4.33;;
78887;SDS011;68276;49.326;8.690;2023-07-02T07:08:38;13.40;;;4.50;;
78887;SDS011;68276;49.326;8.690;2023-07-02T07:11:04;14.93;;;4.78;;
78887;SDS011;68276;49.326;8.690;2023-07-02T07:13:29;13.50;;;4.63;;
78887;SDS011;68276;49.326;8.690;2023-07-02T07:15:54;14.63;;;5.15;;
78887;SDS011;68276;49.326;8.690;2023-07-02T07:18:20;14.17;;;5.30;;
78887;SDS011;68276;49.326;8.690;2023-07-02T07:20:45;12.43;;;4.75;;
78887;SDS011;68276;49.326;8.690;2023-07-02T07:23:10;14.20;;;5.37;;
78887;SDS011;68276;49.326;8.690;2023-07-02T07:25:36;14.07;;;5.43;;
78887;SDS011;68276;49.326;8.690;2023-07-02T07:28:01;14.33;;;4.70;;
78887;SDS011;68276;49.326;8.690;2023-07-02T07:30:27;15.88;;;4.85;;
78887;SDS011;68276;49.326;8.690;2023-07-02T07:32:52;13.68;;;4.65;;
78887;SDS011;68276;49.326;8.690;2023-07-02T07:37:46;16.58;;;5.60;;
78887;SDS011;68276;49.326;8.690;2023-07-02T07:40:11;13.50;;;5.10;;
78887;SDS011;68276;49.326;8.690;2023-07-02T07:42:37;15.60;;;5.15;;
78887;SDS011;68276;49.326;8.690;2023-07-02T07:45:03;14.93;;;5.43;;
78887;SDS011;68276;49.326;8.690;2023-07-02T07:47:29;15.82;;;5.57;;
78887;SDS011;68276;49.326;8.690;2023-07-02T07:49:54;15.23;;;5.07;;
78887;SDS011;68276;49.326;8.690;2023-07-02T07:52:20;19.88;;;5.82;;
78887;SDS011;68276;49.326;8.690;2023-07-02T07:57:11;15.83;;;5.50;;
78887;SDS011;68276;49.326;8.690;2023-07-02T07:59:36;15.37;;;5.50;;
78887;SDS011;68276;49.326;8.690;2023-07-02T08:02:01;17.47;;;5.90;;
78887;SDS011;68276;49.326;8.690;2023-07-02T08:04:27;17.50;;;5.78;;
78887;SDS011;68276;49.326;8.690;2023-07-02T08:06:53;14.43;;;5.27;;
78887;SDS011;68276;49.326;8.690;2023-07-02T08:09:19;16.20;;;5.38;;
78887;SDS011;68276;49.326;8.690;2023-07-02T08:11:45;14.55;;;5.20;;
78887;SDS011;68276;49.326;8.690;2023-07-02T08:14:11;14.15;;;5.03;;
78887;SDS011;68276;49.326;8.690;2023-07-02T08:16:37;19.73;;;6.13;;
78887;SDS011;68276;49.326;8.690;2023-07-02T08:19:02;16.97;;;6.00;;
78887;SDS011;68276;49.326;8.690;2023-07-02T08:21:27;19.42;;;7.15;;
78887;SDS011;68276;49.326;8.690;2023-07-02T08:23:53;16.90;;;6.27;;
78887;SDS011;68276;49.326;8.690;2023-07-02T08:26:18;16.73;;;6.57;;
78887;SDS011;68276;49.326;8.690;2023-07-02T08:28:43;17.30;;;6.07;;
78887;SDS011;68276;49.326;8.690;2023-07-02T08:31:09;17.05;;;6.32;;
78887;SDS011;68276;49.326;8.690;2023-07-02T08:33:34;16.85;;;7.05;;
78887;SDS011;68276;49.326;8.690;2023-07-02T08:36:00;15.80;;;6.10;;
78887;SDS011;68276;49.326;8.690;2023-07-02T08:38:26;17.95;;;6.43;;
78887;SDS011;68276;49.326;8.690;2023-07-02T08:40:51;16.77;;;5.80;;
78887;SDS011;68276;49.326;8.690;2023-07-02T08:43:17;16.55;;;6.53;;
78887;SDS011;68276;49.326;8.690;2023-07-02T08:45:43;16.90;;;6.50;;
78887;SDS011;68276;49.326;8.690;2023-07-02T08:48:09;16.02;;;6.35;;
78887;SDS011;68276;49.326;8.690;2023-07-02T08:50:36;15.48;;;6.05;;
78887;SDS011;68276;49.326;8.690;2023-07-02T08:53:01;17.67;;;6.53;;
78887;SDS011;68276;49.326;8.690;2023-07-02T08:55:26;19.20;;;7.32;;
78887;SDS011;68276;49.326;8.690;2023-07-02T08:57:55;17.48;;;6.47;;
78887;SDS011;68276;49.326;8.690;2023-07-02T09:00:25;17.35;;;7.38;;
78887;SDS011;68276;49.326;8.690;2023-07-02T09:02:51;17.75;;;6.45;;
78887;SDS011;68276;49.326;8.690;2023-07-02T09:05:19;17.27;;;6.63;;
78887;SDS011;68276;49.326;8.690;2023-07-02T09:07:45;17.88;;;6.38;;
78887;SDS011;68276;49.326;8.690;2023-07-02T09:10:29;18.15;;;6.80;;
78887;SDS011;68276;49.326;8.690;2023-07-02T09:13:05;15.90;;;6.30;;
78887;SDS011;68276;49.326;8.690;2023-07-02T09:15:35;20.65;;;7.47;;
78887;SDS011;68276;49.326;8.690;2023-07-02T09:18:14;16.58;;;6.07;;
78887;SDS011;68276;49.326;8.690;2023-07-02T09:20:46;15.75;;;6.18;;
78887;SDS011;68276;49.326;8.690;2023-07-02T09:23:15;18.20;;;6.40;;
78887;SDS011;68276;49.326;8.690;2023-07-02T09:25:40;14.23;;;6.15;;
78887;SDS011;68276;49.326;8.690;2023-07-02T09:28:19;22.27;;;7.10;;
78887;SDS011;68276;49.326;8.690;2023-07-02T09:33:16;15.18;;;6.25;;
78887;SDS011;68276;49.326;8.690;2023-07-02T09:35:42;19.27;;;7.20;;
78887;SDS011;68276;49.326;8.690;2023-07-02T09:38:09;18.55;;;6.55;;
78887;SDS011;68276;49.326;8.690;2023-07-02T09:40:35;18.42;;;6.50;;
78887;SDS011;68276;49.326;8.690;2023-07-02T09:43:09;17.45;;;6.43;;
78887;SDS011;68276;49.326;8.690;2023-07-02T09:45:36;18.65;;;7.68;;
78887;SDS011;68276;49.326;8.690;2023-07-02T09:48:02;17.70;;;6.80;;
78887;SDS011;68276;49.326;8.690;2023-07-02T09:50:31;15.20;;;6.30;;
78887;SDS011;68276;49.326;8.690;2023-07-02T09:52:57;16.15;;;6.30;;
78887;SDS011;68276;49.326;8.690;2023-07-02T09:55:23;15.70;;;6.30;;
78887;SDS011;68276;49.326;8.690;2023-07-02T09:57:49;20.65;;;7.95;;
78887;SDS011;68276;49.326;8.690;2023-07-02T10:00:14;17.08;;;7.28;;
78887;SDS011;68276;49.326;8.690;2023-07-02T10:05:06;17.25;;;6.78;;
78887;SDS011;68276;49.326;8.690;2023-07-02T10:07:31;17.40;;;7.40;;
78887;SDS011;68276;49.326;8.690;2023-07-02T10:09:58;21.08;;;7.45;;
78887;SDS011;68276;49.326;8.690;2023-07-02T10:14:53;18.20;;;7.03;;
78887;SDS011;68276;49.326;8.690;2023-07-02T10:20:03;16.20;;;6.63;;
78887;SDS011;68276;49.326;8.690;2023-07-02T10:22:42;20.10;;;7.18;;
78887;SDS011;68276;49.326;8.690;2023-07-02T10:25:09;18.73;;;6.60;;
78887;SDS011;68276;49.326;8.690;2023-07-02T10:30:08;17.30;;;6.80;;
78887;SDS011;68276;49.326;8.690;2023-07-02T10:32:35;18.98;;;6.70;;
78887;SDS011;68276;49.326;8.690;2023-07-02T10:35:24;18.35;;;7.60;;
78887;SDS011;68276;49.326;8.690;2023-07-02T10:37:50;18.95;;;7.22;;
78887;SDS011;68276;49.326;8.690;2023-07-02T10:42:44;16.80;;;7.23;;
78887;SDS011;68276;49.326;8.690;2023-07-02T10:45:10;19.45;;;7.20;;
78887;SDS011;68276;49.326;8.690;2023-07-02T10:50:13;17.05;;;7.13;;
78887;SDS011;68276;49.326;8.690;2023-07-02T10:52:42;16.30;;;6.93;;
78887;SDS011;68276;49.326;8.690;2023-07-02T10:57:33;16.90;;;7.10;;
78887;SDS011;68276;49.326;8.690;2023-07-02T11:02:38;21.23;;;7.10;;
78887;SDS011;68276;49.326;8.690;2023-07-02T11:05:07;17.15;;;6.88;;
78887;SDS011;68276;49.326;8.690;2023-07-02T11:07:40;17.23;;;6.75;;
78887;SDS011;68276;49.326;8.690;2023-07-02T11:10:06;20.90;;;7.35;;
78887;SDS011;68276;49.326;8.690;2023-07-02T11:12:33;18.73;;;7.50;;
78887;SDS011;68276;49.326;8.690;2023-07-02T11:17:33;18.70;;;6.85;;
78887;SDS011;68276;49.326;8.690;2023-07-02T11:22:31;17.55;;;6.32;;
78887;SDS011;68276;49.326;8.690;2023-07-02T11:24:57;19.13;;;7.55;;
78887;SDS011;68276;49.326;8.690;2023-07-02T11:27:33;16.02;;;6.88;;
78887;SDS011;68276;49.326;8.690;2023-07-02T11:32:24;16.52;;;7.43;;
78887;SDS011;68276;49.326;8.690;2023-07-02T11:37:19;16.38;;;7.20;;
78887;SDS011;68276;49.326;8.690;2023-07-02T11:42:10;21.60;;;9.07;;
78887;SDS011;68276;49.326;8.690;2023-07-02T11:47:00;23.77;;;7.30;;
78887;SDS011;68276;49.326;8.690;2023-07-02T11:49:26;17.40;;;7.83;;
78887;SDS011;68276;49.326;8.690;2023-07-02T11:54:16;18.90;;;7.07;;
78887;SDS011;68276;49.326;8.690;2023-07-02T11:56:43;15.75;;;7.15;;
78887;SDS011;68276;49.326;8.690;2023-07-02T12:01:35;16.48;;;7.68;;
78887;SDS011;68276;49.326;8.690;2023-07-02T12:06:25;19.05;;;7.68;;
78887;SDS011;68276;49.326;8.690;2023-07-02T12:11:16;21.30;;;7.20;;
78887;SDS011;68276;49.326;8.690;2023-07-02T12:13:42;18.02;;;7.22;;
78887;SDS011;68276;49.326;8.690;2023-07-02T12:18:33;16.20;;;7.07;;
78887;SDS011;68276;49.326;8.690;2023-07-02T12:20:58;20.43;;;7.70;;
78887;SDS011;68276;49.326;8.690;2023-07-02T12:23:23;17.27;;;6.90;;
78887;SDS011;68276;49.326;8.690;2023-07-02T12:28:14;20.10;;;7.57;;
78887;SDS011;68276;49.326;8.690;2023-07-02T12:30:40;16.10;;;6.53;;
78887;SDS011;68276;49.326;8.690;2023-07-02T12:33:06;18.55;;;6.95;;
78887;SDS011;68276;49.326;8.690;2023-07-02T12:37:57;16.00;;;6.83;;
78887;SDS011;68276;49.326;8.690;2023-07-02T12:42:48;17.33;;;6.93;;
78887;SDS011;68276;49.326;8.690;2023-07-02T12:45:15;19.17;;;6.95;;
78887;SDS011;68276;49.326;8.690;2023-07-02T12:47:41;17.45;;;6.95;;
78887;SDS011;68276;49.326;8.690;2023-07-02T12:50:07;18.45;;;7.20;;
78887;SDS011;68276;49.326;8.690;2023-07-02T12:52:33;19.05;;;7.68;;
78887;SDS011;68276;49.326;8.690;2023-07-02T12:54:59;15.10;;;7.57;;
78887;SDS011;68276;49.326;8.690;2023-07-02T12:57:25;18.00;;;7.28;;
78887;SDS011;68276;49.326;8.690;2023-07-02T12:59:52;19.33;;;8.07;;
78887;SDS011;68276;49.326;8.690;2023-07-02T13:02:18;15.48;;;7.45;;
78887;SDS011;68276;49.326;8.690;2023-07-02T13:04:43;19.33;;;7.50;;
78887;SDS011;68276;49.326;8.690;2023-07-02T13:07:08;18.77;;;7.43;;
78887;SDS011;68276;49.326;8.690;2023-07-02T13:11:59;17.33;;;6.77;;
78887;SDS011;68276;49.326;8.690;2023-07-02T13:14:24;16.70;;;7.10;;
78887;SDS011;68276;49.326;8.690;2023-07-02T13:16:50;17.27;;;7.37;;
78887;SDS011;68276;49.326;8.690;2023-07-02T13:19:15;18.07;;;8.17;;
78887;SDS011;68276;49.326;8.690;2023-07-02T13:21:40;19.92;;;7.47;;
78887;SDS011;68276;49.326;8.690;2023-07-02T13:24:06;19.17;;;7.03;;
78887;SDS011;68276;49.326;8.690;2023-07-02T13:26:32;20.10;;;7.28;;
78887;SDS011;68276;49.326;8.690;2023-07-02T13:28:57;18.87;;;7.60;;
78887;SDS011;68276;49.326;8.690;2023-07-02T13:31:23;16.92;;;7.40;;
78887;SDS011;68276;49.326;8.690;2023-07-02T13:33:48;21.63;;;7.95;;
78887;SDS011;68276;49.326;8.690;2023-07-02T13:36:15;17.73;;;7.43;;
78887;SDS011;68276;49.326;8.690;2023-07-02T13:38:41;20.65;;;7.90;;
78887;SDS011;68276;49.326;8.690;2023-07-02T13:41:06;18.27;;;7.35;;
78887;SDS011;68276;49.326;8.690;2023-07-02T13:43:32;18.90;;;7.80;;
78887;SDS011;68276;49.326;8.690;2023-07-02T13:45:59;17.17;;;7.53;;
78887;SDS011;68276;49.326;8.690;2023-07-02T13:48:24;19.17;;;7.85;;
78887;SDS011;68276;49.326;8.690;2023-07-02T13:50:49;19.38;;;7.03;;
78887;SDS011;68276;49.326;8.690;2023-07-02T13:53:17;19.27;;;7.25;;
78887;SDS011;68276;49.326;8.690;2023-07-02T13:55:42;19.45;;;8.77;;
78887;SDS011;68276;49.326;8.690;2023-07-02T13:58:07;16.83;;;7.88;;
78887;SDS011;68276;49.326;8.690;2023-07-02T14:00:33;18.70;;;8.05;;
78887;SDS011;68276;49.326;8.690;2023-07-02T14:02:58;17.60;;;7.83;;
78887;SDS011;68276;49.326;8.690;2023-07-02T14:05:24;17.35;;;8.23;;
78887;SDS011;68276;49.326;8.690;2023-07-02T14:07:49;20.58;;;8.23;;
78887;SDS011;68276;49.326;8.690;2023-07-02T14:10:15;17.27;;;8.13;;
78887;SDS011;68276;49.326;8.690;2023-07-02T14:12:41;19.58;;;8.35;;
78887;SDS011;68276;49.326;8.690;2023-07-02T14:15:07;17.98;;;7.57;;
78887;SDS011;68276;49.326;8.690;2023-07-02T14:17:33;19.48;;;7.72;;
78887;SDS011;68276;49.326;8.690;2023-07-02T14:19:59;18.88;;;8.23;;
78887;SDS011;68276;49.326;8.690;2023-07-02T14:22:25;20.57;;;8.63;;
78887;SDS011;68276;49.326;8.690;2023-07-02T14:24:50;22.33;;;7.43;;
78887;SDS011;68276;49.326;8.690;2023-07-02T14:27:15;19.60;;;8.63;;
78887;SDS011;68276;49.326;8.690;2023-07-02T14:29:41;17.13;;;7.77;;
78887;SDS011;68276;49.326;8.690;2023-07-02T14:32:06;17.70;;;7.75;;
78887;SDS011;68276;49.326;8.690;2023-07-02T14:34:32;17.40;;;8.32;;
78887;SDS011;68276;49.326;8.690;2023-07-02T14:36:58;18.55;;;7.95;;
78887;SDS011;68276;49.326;8.690;2023-07-02T14:39:24;17.58;;;7.80;;
78887;SDS011;68276;49.326;8.690;2023-07-02T14:41:49;20.20;;;8.50;;
78887;SDS011;68276;49.326;8.690;2023-07-02T14:44:15;19.08;;;7.68;;
78887;SDS011;68276;49.326;8.690;2023-07-02T14:46:40;17.33;;;7.85;;
78887;SDS011;68276;49.326;8.690;2023-07-02T14:49:07;18.20;;;7.85;;
78887;SDS011;68276;49.326;8.690;2023-07-02T14:51:33;19.80;;;8.48;;
78887;SDS011;68276;49.326;8.690;2023-07-02T14:53:58;18.43;;;7.70;;
78887;SDS011;68276;49.326;8.690;2023-07-02T14:56:26;18.77;;;8.95;;
78887;SDS011;68276;49.326;8.690;2023-07-02T14:58:51;19.98;;;9.05;;
78887;SDS011;68276;49.326;8.690;2023-07-02T15:01:17;19.93;;;8.67;;
78887;SDS011;68276;49.326;8.690;2023-07-02T15:03:42;18.83;;;8.02;;
78887;SDS011;68276;49.326;8.690;2023-07-02T15:06:09;18.97;;;8.27;;
78887;SDS011;68276;49.326;8.690;2023-07-02T15:08:37;19.58;;;8.32;;
78887;SDS011;68276;49.326;8.690;2023-07-02T15:11:02;19.55;;;8.55;;
78887;SDS011;68276;49.326;8.690;2023-07-02T15:13:28;18.92;;;7.88;;
78887;SDS011;68276;49.326;8.690;2023-07-02T15:15:54;17.05;;;7.53;;
78887;SDS011;68276;49.326;8.690;2023-07-02T15:18:19;18.37;;;7.90;;
78887;SDS011;68276;49.326;8.690;2023-07-02T15:20:45;18.45;;;8.55;;
78887;SDS011;68276;49.326;8.690;2023-07-02T15:23:12;18.27;;;7.82;;
78887;SDS011;68276;49.326;8.690;2023-07-02T15:25:37;16.00;;;8.00;;
78887;SDS011;68276;49.326;8.690;2023-07-02T15:28:03;17.83;;;7.22;;
78887;SDS011;68276;49.326;8.690;2023-07-02T15:30:28;17.50;;;7.67;;
78887;SDS011;68276;49.326;8.690;2023-07-02T15:32:54;19.20;;;8.32;;
78887;SDS011;68276;49.326;8.690;2023-07-02T15:35:20;20.08;;;8.57;;
78887;SDS011;68276;49.326;8.690;2023-07-02T15:37:46;20.40;;;8.82;;
78887;SDS011;68276;49.326;8.690;2023-07-02T15:40:12;19.00;;;8.13;;